Steelmantown, New Jersey
Current Conditions -  °F | °C
As of 5:54 PM on Sunday 21 Dec 2014 (Local Time) from KMIV Reporting Station
Clear Clear  
Wind Chill: 25°   Ceiling: Unl
Heat Index: 30°   Visibility: 10mi
Dew Point: 22°   Wind: 5mph
Humidity: 72%   Direction: 330°NNW
Pressure: 30.33"   Gusts: NA
Location:  39.2589°N, 74.8124°W
Report Text: KMIV 212254Z AUTO 33004KT 10SM CLR M01/M06 A3033 RMK AO2 SLP270 T10111056
Loading
Personal Weather Stations






























Interactive Weather Map New forecast layout! Learn more

10-Day Weather Forecast

Advertisements
Track Severe Weather on mobile